Weather at Voysil Airfield

Public forecast

Using degrees Celsius for public forecast. Weather courtesy of forecast.io.

Closest aviation weather report (METAR) to Voysil Airfield

Closest report is Graf Ignatievo Air Base, 5.5 nm (10.2 km) NE.

2023/03/24 05:00 (retrieved 48 minutes ago)

LBPG 240500Z 30004KT 5000 BR FEW100 SCT200 01/01 Q1018

Closest aviation forecast (TAF) to Voysil Airfield

Forecast is more than 6 hours old.

Closest forecast is Kuk√ęs International Airport, 188.4 nm (348.8 km) W.

2023/03/23 18:00 Ammendment (retrieved 12 hours ago)

TAF AMD LAKU 231729Z 2318/2418 CNL